Aérodrome :
LOGIN :

S'inscrire | Disclaimer

   EN    FR    IT 

 










Légende :    VFR   VFR Marginal   IFR   IFR Intensif   IFR Très Intensif
Visi : 
Plafond : 
>= 8 km
>= 3000ft
5 à 8 km
1000 à 3000 ft
1500m à 5 km
500 à 1000 ft
800 à 1500m
200 à 500 ft
< 800m
< 200 ft
Symboles :   Orages  Brouillard  Fortes neiges  Fortes précipitations  Vent > 20 kt
SIGMETs :   Divers  Orages  Givrage  Turbulence  Onde Orograph.  Cendres Volcan.







- Altitude de l'aérodrome : 327 ft
- Code IATA : BHX
- Voir les cartes d'approche


EGBB - Birmingham

DERNIER METAR :
  • 220920Z 21004KT 160V250 CAVOK 11/08 Q1018

METARs EXPIRÉS :
  • 220850Z 22004KT 190V260 CAVOK 11/08 Q1018
  • 220820Z 23005KT 200V270 CAVOK 11/08 Q1018
  • 220750Z 22005KT CAVOK 11/08 Q1017
  • 220720Z 23005KT 190V260 CAVOK 10/08 Q1018
  • 220650Z 21004KT 180V250 CAVOK 10/08 Q1018

TAF TAF EGBB
Valide du 22 à 06h jusqu'au 23 à 06h UTC


220458Z 2206/2306 22006KT 9999 FEW025 SCT040
TEMPO 2210/2221 7000 RA
TEMPO 2215/2221 BKN007
ATIS : +44 121 780 0910
Pas de NOTAMs connus pour ce terrain.
3 SIGMETs publiés pour la FIR London (EGTT) :
 
Givrage fort
EGTT SIGMET 05 VALID 221000/221400 EGRR
EGTT LONDON FIR SEV ICE FCST WI N5013 W00212 - N5140 W00530 - N5229 W00432 - N5050 W00005 - N5013 W00212 FL060/150 MOV E 25KT NC=
Turbulence forte
EGTT SIGMET 04 VALID 220600/221000 EGRR
EGTT LONDON FIR SEV TURB FCST WI N5310 E00303 - N5500 W00425 - N5500 E00200 - N5310 E00303 FL220/360 MOV NE 25KT NC=
Givrage fort
EGTT SIGMET 03 VALID 220600/221000 EGRR
EGTT LONDON FIR SEV ICE FCST WI N5000 W00200 - N4928 W00445 - N5055 W00800 - N5100 W00800 - N5220 W00530 - N5000 W00038 - N5000 W00200 FL060/150 MOV E 25KT NC=



MET'MAP, la Météo Aéronautique d'un coup d'oeil ! - Copyright ORBIFLY Décembre 2007 - Disclaimer

ORBIFLY MET'MAP TEAM :

Programmation & Développement : Alexandra Zaïnal
Conception & Développement : Baudouin d'Aumeries
Co-Programmation & Développement : Marc-Olivier Méhu
Soutien technique & logistique : Manuel Goepfert

Contact : metmap@orbifly.com




SOURCES & CREDITS :

   NOAA